createdAt,value
2019-05-29T00:01:49.870Z,2.55
2019-05-29T00:04:20.141Z,2.25
2019-05-29T00:06:50.395Z,2.50
2019-05-29T00:09:20.663Z,2.45
2019-05-29T00:11:50.888Z,2.22
2019-05-29T00:14:27.254Z,2.12
2019-05-29T00:16:53.095Z,2.27
2019-05-29T00:19:23.362Z,2.10
2019-05-29T00:21:53.561Z,2.27
2019-05-29T00:24:23.819Z,2.12
2019-05-29T00:26:54.081Z,2.30
2019-05-29T00:29:24.313Z,2.30
2019-05-29T00:31:54.523Z,2.20
2019-05-29T00:34:24.763Z,2.10
2019-05-29T00:36:54.987Z,2.20
2019-05-29T00:39:25.244Z,2.15
2019-05-29T00:41:55.532Z,2.42
2019-05-29T00:44:33.916Z,2.50
2019-05-29T00:46:57.599Z,2.40
2019-05-29T00:49:27.852Z,2.25
2019-05-29T00:51:58.082Z,2.40
2019-05-29T00:54:28.328Z,2.60
2019-05-29T00:56:58.549Z,2.20
2019-05-29T00:59:29.846Z,2.60
2019-05-29T01:02:00.009Z,3.17
2019-05-29T01:04:30.308Z,3.33
2019-05-29T01:07:00.513Z,2.30
2019-05-29T01:09:30.634Z,2.60
2019-05-29T01:12:00.915Z,2.33
2019-05-29T01:14:31.205Z,2.67
2019-05-29T01:17:01.509Z,2.72
2019-05-29T01:19:31.878Z,2.60
2019-05-29T01:22:02.090Z,2.52
2019-05-29T01:24:32.334Z,2.50
2019-05-29T01:27:02.545Z,2.40
2019-05-29T01:29:32.784Z,2.40
2019-05-29T01:32:03.055Z,2.58
2019-05-29T01:34:33.352Z,2.33
2019-05-29T01:37:03.550Z,2.25
2019-05-29T01:39:33.923Z,2.60
2019-05-29T01:42:04.147Z,2.30
2019-05-29T01:44:34.473Z,2.50
2019-05-29T01:47:04.667Z,2.50
2019-05-29T01:49:34.963Z,2.70
2019-05-29T01:52:05.188Z,2.20
2019-05-29T01:54:35.512Z,2.58
2019-05-29T01:57:05.629Z,2.40
2019-05-29T01:59:35.897Z,2.50
2019-05-29T02:02:06.076Z,2.15
2019-05-29T02:04:36.320Z,2.35
2019-05-29T02:07:06.721Z,2.20
2019-05-29T02:09:36.952Z,2.33
2019-05-29T02:12:07.146Z,2.55
2019-05-29T02:14:37.398Z,2.20
2019-05-29T02:17:07.600Z,2.67
2019-05-29T02:19:37.857Z,2.58
2019-05-29T02:22:08.051Z,2.12
2019-05-29T02:24:38.291Z,2.47
2019-05-29T02:27:08.511Z,2.55
2019-05-29T02:29:38.750Z,2.83
2019-05-29T02:32:09.184Z,2.30
2019-05-29T02:34:39.348Z,2.22
2019-05-29T02:37:09.507Z,1.98
2019-05-29T02:39:39.770Z,2.20
2019-05-29T02:42:10.660Z,1.98
2019-05-29T02:44:40.910Z,1.90
2019-05-29T02:47:11.063Z,2.22
2019-05-29T02:49:41.306Z,2.00
2019-05-29T02:52:11.472Z,2.22
2019-05-29T02:54:41.685Z,2.22
2019-05-29T02:57:11.986Z,2.17
2019-05-29T02:59:42.168Z,2.05
2019-05-29T03:02:12.365Z,2.12
2019-05-29T03:04:42.602Z,2.20
2019-05-29T03:07:12.799Z,2.20
2019-05-29T03:09:43.345Z,2.17
2019-05-29T03:12:13.536Z,1.90
2019-05-29T03:14:43.817Z,2.00
2019-05-29T03:17:14.152Z,2.27
2019-05-29T03:19:44.306Z,1.77
2019-05-29T03:22:14.495Z,1.82
2019-05-29T03:24:44.684Z,1.90
2019-05-29T03:27:14.897Z,2.83
2019-05-29T03:29:45.220Z,2.00
2019-05-29T03:32:15.494Z,2.10
2019-05-29T03:34:47.340Z,2.77
2019-05-29T03:37:17.502Z,2.20
2019-05-29T03:39:47.797Z,2.22
2019-05-29T03:42:18.010Z,2.02
2019-05-29T03:44:48.239Z,1.82
2019-05-29T03:47:18.472Z,2.12
2019-05-29T03:49:48.716Z,2.77
2019-05-29T03:52:18.869Z,2.10
2019-05-29T03:54:49.149Z,2.62
2019-05-29T03:57:19.349Z,2.20
2019-05-29T03:59:49.665Z,2.27
2019-05-29T04:02:19.869Z,2.10
2019-05-29T04:04:50.183Z,2.20
2019-05-29T04:07:20.419Z,2.52
2019-05-29T04:09:50.640Z,2.20
2019-05-29T04:12:20.850Z,2.10
2019-05-29T04:14:51.093Z,2.25
2019-05-29T04:17:22.899Z,2.17
2019-05-29T04:19:53.155Z,2.30
2019-05-29T04:22:27.981Z,2.62
2019-05-29T04:24:59.888Z,1.95
2019-05-29T04:27:34.293Z,2.30
2019-05-29T04:30:05.826Z,2.33
2019-05-29T04:32:36.596Z,2.40
2019-05-29T04:35:08.326Z,2.05
2019-05-29T04:37:39.942Z,2.05
2019-05-29T04:40:11.107Z,2.30
2019-05-29T04:42:41.322Z,1.90
2019-05-29T04:45:11.662Z,2.22
2019-05-29T04:47:41.968Z,2.10
2019-05-29T04:50:12.237Z,2.00
2019-05-29T04:52:42.384Z,2.33
2019-05-29T04:55:12.835Z,2.00
2019-05-29T04:57:43.136Z,2.33
2019-05-29T05:00:13.779Z,2.20
2019-05-29T05:02:44.037Z,2.35
2019-05-29T05:05:14.457Z,2.20
2019-05-29T05:07:44.601Z,2.27
2019-05-29T05:10:17.716Z,2.20
2019-05-29T05:12:48.026Z,2.30
2019-05-29T05:15:18.355Z,3.33
2019-05-29T05:17:48.578Z,2.20
2019-05-29T05:20:18.835Z,1.80
2019-05-29T05:22:48.998Z,1.60
2019-05-29T05:25:19.162Z,1.50
2019-05-29T05:27:49.362Z,1.92
2019-05-29T05:30:19.976Z,1.90
2019-05-29T05:32:50.130Z,1.87
2019-05-29T05:35:20.366Z,2.00
2019-05-29T05:37:50.600Z,1.67
2019-05-29T05:40:21.001Z,1.70
2019-05-29T05:42:51.106Z,1.77
2019-05-29T05:45:21.339Z,1.80
2019-05-29T05:47:57.236Z,2.00
2019-05-29T05:50:24.330Z,1.77
2019-05-29T05:52:54.586Z,2.05
2019-05-29T05:55:24.827Z,1.82
2019-05-29T05:57:55.033Z,2.25
2019-05-29T06:00:33.931Z,1.80
2019-05-29T06:03:04.714Z,2.08
2019-05-29T06:05:36.065Z,1.65
2019-05-29T06:08:06.550Z,1.82
2019-05-29T06:10:36.787Z,1.62
2019-05-29T06:13:07.007Z,1.50
2019-05-29T06:15:38.377Z,1.80
2019-05-29T06:18:20.576Z,1.70
2019-05-29T06:20:40.985Z,1.52
2019-05-29T06:23:11.322Z,1.42
2019-05-29T06:25:42.479Z,1.80
2019-05-29T06:28:13.343Z,1.65
2019-05-29T06:30:45.081Z,1.40
2019-05-29T06:33:15.419Z,1.02
2019-05-29T06:35:45.670Z,1.45
2019-05-29T06:38:15.867Z,1.57
2019-05-29T06:40:47.105Z,1.42
2019-05-29T06:43:22.697Z,1.30
2019-05-29T06:45:54.350Z,1.45
2019-05-29T06:48:41.335Z,1.15
2019-05-29T06:50:58.419Z,1.82
2019-05-29T06:53:28.633Z,1.22
2019-05-29T06:56:00.268Z,1.50
2019-05-29T06:58:30.815Z,1.90
2019-05-29T07:01:01.074Z,1.40
2019-05-29T07:03:31.267Z,1.70
2019-05-29T07:06:01.637Z,1.22
2019-05-29T07:08:38.662Z,1.20
2019-05-29T07:11:05.806Z,1.32
2019-05-29T07:13:37.710Z,1.15
2019-05-29T07:16:07.943Z,1.30
2019-05-29T07:18:38.610Z,1.60
2019-05-29T07:21:08.990Z,1.20
2019-05-29T07:23:39.278Z,1.40
2019-05-29T07:26:09.639Z,1.50
2019-05-29T07:29:00.492Z,1.42
2019-05-29T07:31:12.715Z,1.40
2019-05-29T07:33:43.262Z,1.27
2019-05-29T07:36:13.587Z,1.40
2019-05-29T07:38:45.908Z,1.20
2019-05-29T07:41:15.700Z,1.32
2019-05-29T07:43:45.986Z,1.15
2019-05-29T07:46:17.369Z,1.25
2019-05-29T07:48:49.756Z,1.52
2019-05-29T07:51:19.559Z,1.47
2019-05-29T07:53:49.778Z,1.50
2019-05-29T07:56:23.053Z,1.12
2019-05-29T07:59:01.824Z,1.55
2019-05-29T08:01:23.738Z,1.62
2019-05-29T08:03:53.929Z,1.27
2019-05-29T08:06:24.194Z,1.15
2019-05-29T08:08:54.342Z,1.57
2019-05-29T08:11:24.574Z,1.40
2019-05-29T08:13:54.792Z,1.30
2019-05-29T08:16:25.144Z,1.30
2019-05-29T08:18:55.564Z,1.42
2019-05-29T08:21:25.807Z,1.30
2019-05-29T08:23:56.045Z,1.40
2019-05-29T08:26:26.327Z,1.62
2019-05-29T08:28:56.618Z,1.00
2019-05-29T08:31:26.879Z,1.12
2019-05-29T08:33:57.105Z,1.30
2019-05-29T08:36:27.366Z,1.22
2019-05-29T08:38:57.539Z,1.17
2019-05-29T08:41:27.704Z,1.50
2019-05-29T08:43:57.938Z,1.32
2019-05-29T08:46:28.212Z,1.20
2019-05-29T08:48:58.421Z,1.27
2019-05-29T08:51:28.742Z,1.10
2019-05-29T08:53:58.877Z,1.22
2019-05-29T08:56:29.144Z,1.40
2019-05-29T08:58:59.315Z,1.67
2019-05-29T09:01:29.590Z,1.47
2019-05-29T09:03:59.810Z,1.55
2019-05-29T09:06:30.066Z,1.30
2019-05-29T09:09:00.354Z,1.55
2019-05-29T09:11:30.593Z,1.40
2019-05-29T09:14:03.119Z,1.42
2019-05-29T09:16:33.419Z,1.40
2019-05-29T09:19:03.875Z,1.32
2019-05-29T09:21:34.111Z,1.27
2019-05-29T09:24:04.437Z,1.20
2019-05-29T09:26:34.695Z,1.20
2019-05-29T09:29:04.915Z,1.62
2019-05-29T09:31:35.097Z,1.32
2019-05-29T09:34:05.316Z,1.52
2019-05-29T09:36:35.589Z,1.47
2019-05-29T09:39:08.366Z,1.30
2019-05-29T09:41:38.549Z,1.30
2019-05-29T09:44:08.768Z,1.42
2019-05-29T09:46:39.022Z,1.50
2019-05-29T09:49:09.252Z,1.40
2019-05-29T09:51:39.497Z,1.30
2019-05-29T09:54:09.759Z,1.60
2019-05-29T09:56:40.985Z,1.30
2019-05-29T09:59:11.214Z,1.55
2019-05-29T10:01:41.491Z,1.75
2019-05-29T10:04:11.766Z,1.32
2019-05-29T10:06:41.979Z,1.42
2019-05-29T10:09:12.194Z,1.20
2019-05-29T10:11:42.428Z,1.30
2019-05-29T10:14:12.574Z,1.40
2019-05-29T10:16:42.827Z,1.60
2019-05-29T10:19:13.029Z,1.35
2019-05-29T10:21:43.219Z,1.55
2019-05-29T10:24:13.503Z,1.62
2019-05-29T10:26:43.763Z,1.05
2019-05-29T10:29:14.101Z,1.32
2019-05-29T10:31:46.769Z,1.20
2019-05-29T10:34:16.458Z,1.30
2019-05-29T10:36:49.907Z,1.00
2019-05-29T10:39:18.558Z,1.25
2019-05-29T10:41:48.900Z,1.25
2019-05-29T10:44:19.132Z,1.40
2019-05-29T10:46:51.825Z,1.82
2019-05-29T10:49:21.260Z,1.37
2019-05-29T10:52:05.586Z,1.30
2019-05-29T10:54:23.204Z,1.20
2019-05-29T10:56:54.823Z,1.60
2019-05-29T10:59:25.375Z,1.30
2019-05-29T11:01:55.637Z,1.70
2019-05-29T11:04:25.868Z,1.30
2019-05-29T11:06:56.914Z,1.20
2019-05-29T11:09:43.243Z,1.10
2019-05-29T11:12:00.256Z,1.37
2019-05-29T11:14:30.472Z,1.37
2019-05-29T11:17:00.840Z,1.75
2019-05-29T11:19:31.056Z,1.45
2019-05-29T11:22:22.555Z,1.47
2019-05-29T11:24:33.184Z,1.35
2019-05-29T11:27:03.426Z,1.30
2019-05-29T11:29:33.640Z,1.32
2019-05-29T11:32:03.826Z,1.12
2019-05-29T11:34:34.048Z,1.10
2019-05-29T11:37:04.509Z,1.77
2019-05-29T11:39:34.674Z,1.30
2019-05-29T11:42:05.097Z,1.20
2019-05-29T11:44:35.314Z,1.10
2019-05-29T11:47:05.667Z,1.10
2019-05-29T11:49:35.892Z,1.35
2019-05-29T11:52:23.747Z,1.30
2019-05-29T11:54:37.981Z,1.37
2019-05-29T11:57:08.640Z,1.40
2019-05-29T11:59:38.874Z,1.22
2019-05-29T12:02:09.432Z,1.80
2019-05-29T12:04:39.696Z,1.50
2019-05-29T12:07:09.961Z,1.40
2019-05-29T12:09:40.233Z,1.30
2019-05-29T12:12:10.483Z,1.50
2019-05-29T12:14:59.273Z,1.20
2019-05-29T12:17:12.528Z,1.30
2019-05-29T12:19:42.761Z,1.50
2019-05-29T12:22:13.043Z,1.60
2019-05-29T12:24:43.172Z,1.10
2019-05-29T12:27:13.435Z,1.27
2019-05-29T12:29:43.590Z,1.17
2019-05-29T12:32:13.969Z,1.20
2019-05-29T12:34:53.087Z,1.15
2019-05-29T12:37:16.176Z,1.30
2019-05-29T12:39:46.485Z,1.65
2019-05-29T12:42:16.810Z,1.17
2019-05-29T12:44:47.036Z,1.37
2019-05-29T12:47:17.295Z,1.50
2019-05-29T12:49:47.537Z,1.10
2019-05-29T12:52:17.802Z,1.17
2019-05-29T12:54:48.028Z,1.40
2019-05-29T12:57:18.274Z,1.42
2019-05-29T12:59:48.512Z,1.17
2019-05-29T13:02:18.773Z,1.40
2019-05-29T13:05:06.772Z,1.37
2019-05-29T13:07:20.925Z,1.50
2019-05-29T13:09:51.156Z,1.30
2019-05-29T13:12:21.400Z,1.32
2019-05-29T13:14:51.779Z,1.20
2019-05-29T13:17:21.917Z,1.30
2019-05-29T13:19:52.229Z,1.10
2019-05-29T13:22:23.635Z,3.52
2019-05-29T13:24:55.105Z,1.70
2019-05-29T13:27:25.472Z,1.60
2019-05-29T13:29:58.399Z,1.50
2019-05-29T13:32:27.745Z,1.67
2019-05-29T13:34:58.125Z,1.17
2019-05-29T13:37:28.482Z,1.27
2019-05-29T13:39:58.715Z,1.57
2019-05-29T13:42:30.220Z,1.22
2019-05-29T13:45:07.715Z,1.70
2019-05-29T13:47:33.526Z,1.15
2019-05-29T13:50:11.949Z,1.10
2019-05-29T13:52:41.138Z,1.20
2019-05-29T13:55:11.767Z,1.22
2019-05-29T13:57:42.077Z,1.30
2019-05-29T14:00:34.393Z,1.45
2019-05-29T14:02:47.432Z,1.72
2019-05-29T14:05:18.049Z,1.17
2019-05-29T14:07:48.922Z,1.10
2019-05-29T14:10:19.393Z,1.30
2019-05-29T14:12:49.772Z,1.67
2019-05-29T14:15:20.349Z,1.85
2019-05-29T14:17:51.933Z,1.67
2019-05-29T14:20:22.365Z,1.80
2019-05-29T14:22:52.812Z,1.20
2019-05-29T14:25:23.149Z,1.45
2019-05-29T14:27:53.548Z,1.50
2019-05-29T14:30:25.118Z,1.42
2019-05-29T14:32:55.319Z,1.50
2019-05-29T14:35:25.662Z,1.22
2019-05-29T14:37:55.990Z,1.05
2019-05-29T14:40:26.193Z,1.30
2019-05-29T14:42:56.609Z,1.50
2019-05-29T14:45:26.935Z,1.40
2019-05-29T14:47:57.260Z,1.10
2019-05-29T14:50:27.710Z,1.60
2019-05-29T14:52:57.905Z,1.30
2019-05-29T14:55:29.182Z,1.52
2019-05-29T14:57:59.397Z,1.47
2019-05-29T15:00:31.161Z,1.20
2019-05-29T15:03:01.691Z,1.10
2019-05-29T15:05:32.222Z,1.35
2019-05-29T15:08:03.769Z,1.50
2019-05-29T15:10:34.279Z,0.98
2019-05-29T15:13:06.317Z,1.37
2019-05-29T15:15:36.699Z,1.40
2019-05-29T15:18:08.442Z,1.32
2019-05-29T15:20:39.182Z,1.30
2019-05-29T15:23:09.403Z,1.22
2019-05-29T15:25:39.728Z,1.42
2019-05-29T15:28:12.588Z,1.20
2019-05-29T15:30:41.765Z,1.27
2019-05-29T15:33:12.670Z,1.42
2019-05-29T15:35:44.068Z,1.55
2019-05-29T15:38:14.857Z,0.93
2019-05-29T15:40:45.256Z,1.42
2019-05-29T15:43:16.953Z,1.65
2019-05-29T15:45:48.468Z,1.70
2019-05-29T15:48:18.765Z,1.32
2019-05-29T15:50:49.195Z,1.60
2019-05-29T15:53:19.630Z,1.27
2019-05-29T15:55:49.970Z,1.30
2019-05-29T15:58:20.194Z,1.40
2019-05-29T16:00:50.516Z,1.27
2019-05-29T16:03:20.945Z,1.40
2019-05-29T16:05:51.265Z,1.50
2019-05-29T16:08:21.695Z,1.80
2019-05-29T16:10:52.021Z,1.30
2019-05-29T16:13:22.344Z,1.50
2019-05-29T16:15:52.744Z,1.25
2019-05-29T16:18:29.016Z,1.27
2019-05-29T16:20:54.850Z,1.30
2019-05-29T16:23:35.064Z,1.42
2019-05-29T16:25:56.935Z,1.50
2019-05-29T16:28:27.185Z,1.80
2019-05-29T16:30:57.470Z,2.05
2019-05-29T16:33:27.771Z,1.55
2019-05-29T16:35:58.227Z,2.05
2019-05-29T16:38:28.656Z,2.15
2019-05-29T16:40:58.983Z,1.82
2019-05-29T16:43:29.193Z,1.57
2019-05-29T16:45:59.526Z,1.40
2019-05-29T16:48:29.955Z,1.40
2019-05-29T16:51:00.279Z,1.65
2019-05-29T16:53:30.693Z,1.22
2019-05-29T16:56:00.928Z,1.40
2019-05-29T16:58:31.262Z,1.12
2019-05-29T17:01:01.415Z,1.10
2019-05-29T17:03:31.752Z,1.10
2019-05-29T17:06:01.972Z,1.40
2019-05-29T17:08:32.300Z,1.42
2019-05-29T17:11:04.787Z,1.00
2019-05-29T17:13:34.431Z,1.35
2019-05-29T17:16:04.745Z,1.35
2019-05-29T17:18:35.097Z,1.20
2019-05-29T17:21:05.302Z,1.15
2019-05-29T17:23:35.870Z,1.22
2019-05-29T17:26:10.494Z,1.22
2019-05-29T17:28:38.067Z,1.30
2019-05-29T17:31:08.350Z,1.37
2019-05-29T17:33:38.592Z,1.57
2019-05-29T17:36:08.820Z,1.50
2019-05-29T17:38:39.189Z,1.40
2019-05-29T17:41:09.404Z,1.25
2019-05-29T17:43:39.679Z,1.20
2019-05-29T17:46:09.890Z,1.27
2019-05-29T17:48:40.151Z,1.30
2019-05-29T17:51:10.356Z,1.22
2019-05-29T17:53:40.697Z,1.25
2019-05-29T17:56:25.236Z,1.30
2019-05-29T17:58:42.971Z,1.20
2019-05-29T18:01:13.275Z,1.20
2019-05-29T18:03:43.629Z,1.20
2019-05-29T18:06:13.924Z,1.40
2019-05-29T18:08:44.189Z,1.47
2019-05-29T18:11:14.424Z,1.40
2019-05-29T18:13:44.688Z,1.22
2019-05-29T18:16:14.969Z,1.42
2019-05-29T18:18:45.218Z,1.20
2019-05-29T18:21:15.513Z,1.40
2019-05-29T18:23:46.603Z,1.30
2019-05-29T18:26:17.924Z,1.87
2019-05-29T18:28:48.319Z,1.52
2019-05-29T18:31:18.624Z,1.50
2019-05-29T18:33:48.970Z,1.15
2019-05-29T18:36:20.955Z,1.20
2019-05-29T18:38:51.251Z,1.75
2019-05-29T18:41:22.247Z,1.35
2019-05-29T18:43:52.725Z,1.40
2019-05-29T18:46:23.246Z,1.35
2019-05-29T18:48:54.380Z,1.12
2019-05-29T18:51:24.629Z,1.47
2019-05-29T18:53:54.894Z,1.40
2019-05-29T18:56:26.464Z,1.70
2019-05-29T18:58:56.872Z,1.30
2019-05-29T19:01:27.556Z,1.90
2019-05-29T19:03:57.972Z,1.37
2019-05-29T19:06:28.176Z,1.40
2019-05-29T19:08:58.361Z,1.37
2019-05-29T19:11:29.734Z,1.60
2019-05-29T19:14:00.218Z,1.50
2019-05-29T19:16:30.444Z,1.30
2019-05-29T19:19:00.690Z,1.55
2019-05-29T19:21:30.849Z,1.90
2019-05-29T19:24:01.093Z,2.00
2019-05-29T19:26:35.331Z,1.32
2019-05-29T19:29:04.074Z,1.60
2019-05-29T19:31:34.354Z,1.42
2019-05-29T19:34:04.628Z,1.30
2019-05-29T19:36:34.871Z,1.50
2019-05-29T19:39:07.975Z,1.60
2019-05-29T19:41:38.298Z,1.65
2019-05-29T19:44:08.555Z,1.92
2019-05-29T19:46:53.029Z,2.10
2019-05-29T19:49:10.749Z,2.00
2019-05-29T19:51:40.966Z,2.25
2019-05-29T19:54:11.243Z,2.17
2019-05-29T19:56:41.512Z,2.22
2019-05-29T19:59:11.824Z,1.87
2019-05-29T20:01:42.039Z,2.35
2019-05-29T20:04:12.329Z,1.92
2019-05-29T20:06:42.550Z,2.12
2019-05-29T20:09:12.935Z,1.92
2019-05-29T20:11:43.132Z,2.12
2019-05-29T20:14:13.384Z,1.60
2019-05-29T20:16:43.594Z,2.20
2019-05-29T20:19:13.828Z,1.92
2019-05-29T20:21:43.977Z,1.82
2019-05-29T20:24:14.298Z,1.65
2019-05-29T20:26:44.440Z,2.25
2019-05-29T20:29:14.683Z,1.77
2019-05-29T20:31:44.881Z,2.05
2019-05-29T20:34:15.146Z,2.00
2019-05-29T20:36:45.317Z,1.95
2019-05-29T20:39:15.527Z,2.15
2019-05-29T20:41:45.731Z,2.25
2019-05-29T20:44:15.981Z,2.90
2019-05-29T20:46:46.127Z,2.10
2019-05-29T20:49:16.374Z,2.40
2019-05-29T20:51:46.589Z,2.17
2019-05-29T20:54:16.863Z,2.08
2019-05-29T20:56:47.065Z,2.27
2019-05-29T20:59:17.247Z,2.60
2019-05-29T21:01:47.861Z,2.62
2019-05-29T21:04:18.185Z,2.27
2019-05-29T21:06:48.308Z,2.58
2019-05-29T21:09:18.552Z,2.40
2019-05-29T21:11:48.759Z,2.40
2019-05-29T21:14:19.014Z,2.50
2019-05-29T21:16:49.169Z,2.70
2019-05-29T21:19:19.423Z,2.50
2019-05-29T21:21:49.711Z,2.37
2019-05-29T21:24:19.952Z,2.42
2019-05-29T21:26:50.179Z,2.85
2019-05-29T21:29:20.389Z,2.27
2019-05-29T21:31:50.608Z,2.20
2019-05-29T21:34:20.853Z,2.60
2019-05-29T21:36:51.397Z,2.33
2019-05-29T21:39:21.642Z,2.27
2019-05-29T21:41:51.902Z,2.35
2019-05-29T21:44:22.153Z,2.75
2019-05-29T21:46:52.357Z,2.50
2019-05-29T21:49:22.688Z,2.92
2019-05-29T21:51:52.955Z,3.20
2019-05-29T21:54:23.205Z,3.10
2019-05-29T21:56:53.432Z,3.30
2019-05-29T21:59:23.580Z,3.40
2019-05-29T22:01:53.967Z,2.90
2019-05-29T22:04:24.228Z,3.12
2019-05-29T22:06:55.426Z,3.10
2019-05-29T22:09:25.680Z,3.30
2019-05-29T22:11:56.362Z,3.95
2019-05-29T22:14:26.774Z,3.90
2019-05-29T22:16:57.192Z,3.30
2019-05-29T22:19:27.555Z,4.17
2019-05-29T22:21:57.768Z,3.77
2019-05-29T22:24:27.955Z,3.02
2019-05-29T22:26:59.326Z,2.85
2019-05-29T22:29:29.716Z,3.65
2019-05-29T22:31:59.937Z,3.30
2019-05-29T22:34:30.261Z,3.47
2019-05-29T22:37:00.583Z,3.45
2019-05-29T22:39:32.029Z,3.52
2019-05-29T22:42:02.957Z,4.35
2019-05-29T22:44:34.320Z,3.77
2019-05-29T22:47:04.581Z,4.12
2019-05-29T22:49:34.843Z,4.67
2019-05-29T22:52:05.080Z,4.37
2019-05-29T22:54:35.344Z,4.28
2019-05-29T22:57:05.573Z,4.72
2019-05-29T22:59:35.813Z,5.05
2019-05-29T23:02:06.034Z,4.10
2019-05-29T23:04:36.373Z,4.40
2019-05-29T23:07:06.598Z,4.20
2019-05-29T23:09:36.898Z,4.42
2019-05-29T23:12:07.837Z,3.75
2019-05-29T23:14:38.130Z,3.70
2019-05-29T23:17:08.501Z,3.37
2019-05-29T23:19:38.805Z,3.83
2019-05-29T23:22:09.096Z,4.08
2019-05-29T23:24:39.427Z,3.58
2019-05-29T23:27:09.710Z,3.50
2019-05-29T23:29:48.819Z,3.30
2019-05-29T23:32:12.032Z,3.55
2019-05-29T23:34:42.206Z,3.30
2019-05-29T23:37:13.842Z,3.72
2019-05-29T23:39:44.244Z,3.95
2019-05-29T23:42:14.418Z,3.30
2019-05-29T23:44:44.603Z,3.40
2019-05-29T23:47:14.932Z,3.72
2019-05-29T23:49:45.296Z,4.00
2019-05-29T23:52:15.515Z,3.42
2019-05-29T23:54:45.837Z,3.87
2019-05-29T23:57:16.052Z,4.10
2019-05-29T23:59:46.323Z,3.60
